Time;durP1;ratioP1;P1;durP2;ratioP2;P2;SDS_P1;SDS_P2;PMS_P1;PMS_P2;Temp;Humidity;BMP_temperature;BMP_pressure;BME280_temperature;BME280_humidity;BME280_pressure;Samples;Min_cycle;Max_cycle;Signal;HPM_P1;HPM_P2
2021/01/01 00:01:34;;;;;;;27.40;17.88;;;4.70;99.50;;;;;;6373053;27;20370;-79
2021/01/01 00:04:35;;;;;;;23.75;16.45;;;4.40;99.30;;;;;;6374120;27;20034;-80
2021/01/01 00:07:35;;;;;;;24.70;16.20;;;4.70;99.30;;;;;;6373695;27;20034;-79
2021/01/01 00:10:36;;;;;;;22.60;14.35;;;4.60;99.40;;;;;;6373608;27;20035;-79
2021/01/01 00:13:37;;;;;;;22.15;14.68;;;4.40;99.40;;;;;;6355387;27;20015;-78
2021/01/01 00:16:37;;;;;;;20.02;14.23;;;4.50;99.50;;;;;;6354946;27;20046;-78
2021/01/01 00:19:38;;;;;;;16.25;11.98;;;4.20;99.50;;;;;;6373636;27;20054;-79
2021/01/01 00:22:40;;;;;;;15.13;10.63;;;4.50;99.70;;;;;;6373263;27;20023;-78
2021/01/01 00:25:42;;;;;;;15.48;11.48;;;4.20;99.80;;;;;;6355341;27;20015;-78
2021/01/01 00:28:43;;;;;;;13.63;10.02;;;4.20;99.90;;;;;;6373886;27;20023;-77
2021/01/01 00:31:44;;;;;;;12.98;9.85;;;4.60;99.90;;;;;;6373226;27;20406;-78
2021/01/01 00:34:44;;;;;;;12.00;8.20;;;4.70;99.90;;;;;;6373117;27;20037;-78
2021/01/01 00:37:45;;;;;;;7.80;5.20;;;4.50;99.90;;;;;;6372903;27;20514;-78
2021/01/01 00:40:46;;;;;;;4.60;3.60;;;4.70;99.90;;;;;;6373126;27;20027;-78
2021/01/01 00:43:46;;;;;;;4.47;3.22;;;4.70;99.50;;;;;;6372831;27;20060;-78
2021/01/01 00:46:47;;;;;;;3.38;2.83;;;4.60;99.20;;;;;;6373117;27;20023;-78
2021/01/01 00:49:47;;;;;;;3.45;2.95;;;4.80;99.20;;;;;;6372916;27;20458;-77
2021/01/01 00:52:48;;;;;;;3.00;2.70;;;4.50;99.10;;;;;;6372766;27;20027;-77
2021/01/01 00:55:48;;;;;;;2.35;2.15;;;3.90;99.00;;;;;;6372703;27;20062;-78
2021/01/01 00:58:50;;;;;;;2.45;2.25;;;4.80;99.40;;;;;;6373093;27;20361;-78
2021/01/01 01:01:50;;;;;;;2.15;2.05;;;3.80;99.90;;;;;;6372583;28;20054;-78
2021/01/01 01:04:51;;;;;;;3.47;2.15;;;3.80;99.90;;;;;;6372516;28;20019;-79
2021/01/01 01:07:52;;;;;;;2.72;2.25;;;3.60;99.90;;;;;;6373326;28;20029;-77
2021/01/01 01:10:52;;;;;;;2.47;2.20;;;4.00;99.90;;;;;;6373200;27;20058;-78
2021/01/01 01:13:53;;;;;;;3.30;2.53;;;3.50;99.90;;;;;;6376848;27;20019;-77
2021/01/01 01:16:54;;;;;;;2.47;2.28;;;3.70;99.90;;;;;;6377696;27;20095;-78
2021/01/01 01:19:54;;;;;;;2.75;2.20;;;3.70;99.90;;;;;;6359664;27;20398;-78
2021/01/01 01:22:55;;;;;;;3.15;2.60;;;3.60;99.90;;;;;;6378052;27;20027;-77
2021/01/01 01:25:55;;;;;;;3.83;3.50;;;3.60;99.90;;;;;;6377595;27;20027;-79
2021/01/01 01:28:56;;;;;;;3.83;2.80;;;3.50;99.90;;;;;;6377516;27;20041;-79
2021/01/01 01:31:56;;;;;;;2.60;2.35;;;3.70;99.90;;;;;;6377579;27;20023;-78
2021/01/01 01:34:57;;;;;;;2.83;2.55;;;;;;;;;;6377589;27;20135;-77
2021/01/01 01:37:58;;;;;;;2.65;2.42;;;;;;;;;;6377104;27;20022;-78
2021/01/01 01:40:59;;;;;;;2.65;2.30;;;3.60;99.90;;;;;;6359205;27;20106;-77
2021/01/01 01:44:00;;;;;;;5.97;3.55;;;;;;;;;;6377039;27;20031;-77
2021/01/01 01:47:01;;;;;;;4.28;2.90;;;3.00;99.90;;;;;;6377433;27;20034;-77
2021/01/01 01:50:03;;;;;;;5.13;3.67;;;3.70;99.90;;;;;;6358648;27;20023;-78
2021/01/01 01:53:03;;;;;;;2.70;2.30;;;3.70;99.90;;;;;;6359124;27;20031;-78
2021/01/01 01:56:04;;;;;;;2.30;2.10;;;4.40;99.20;;;;;;6376768;27;20038;-80
2021/01/01 01:59:05;;;;;;;2.67;2.40;;;3.70;99.00;;;;;;6358303;27;20098;-77
2021/01/01 02:02:05;;;;;;;2.20;2.00;;;4.40;99.30;;;;;;6376673;27;20099;-78
2021/01/01 02:05:07;;;;;;;2.58;2.38;;;4.20;99.40;;;;;;6376499;27;20023;-78
2021/01/01 02:08:07;;;;;;;2.20;2.00;;;3.70;98.50;;;;;;6358320;27;20031;-77
2021/01/01 02:11:08;;;;;;;2.15;1.95;;;3.80;99.10;;;;;;6376412;27;20027;-77
2021/01/01 02:14:09;;;;;;;2.00;1.90;;;4.20;99.30;;;;;;6341080;27;20042;-78
2021/01/01 02:17:09;;;;;;;2.00;1.90;;;4.10;99.60;;;;;;6358393;27;20023;-78
2021/01/01 02:20:10;;;;;;;1.90;1.80;;;4.10;99.30;;;;;;6376450;27;20023;-77
2021/01/01 02:23:11;;;;;;;2.10;1.95;;;3.60;99.00;;;;;;6375908;27;20033;-78
2021/01/01 02:26:12;;;;;;;2.03;1.92;;;4.00;99.20;;;;;;6376160;27;20023;-79
2021/01/01 02:29:12;;;;;;;2.13;2.00;;;4.10;99.30;;;;;;6376187;27;20023;-79
2021/01/01 02:32:13;;;;;;;1.90;1.80;;;4.30;98.90;;;;;;6376017;27;20032;-77
2021/01/01 02:35:13;;;;;;;3.40;2.15;;;4.10;99.00;;;;;;6376012;27;20467;-77
2021/01/01 02:38:14;;;;;;;2.30;2.10;;;4.10;98.80;;;;;;6376492;27;20031;-77
2021/01/01 02:41:15;;;;;;;2.20;2.00;;;4.40;99.10;;;;;;6376223;27;20023;-77
2021/01/01 02:44:18;;;;;;;1.90;1.80;;;3.60;99.00;;;;;;6376106;27;20027;-77
2021/01/01 02:47:19;;;;;;;2.50;2.30;;;4.10;98.90;;;;;;6375938;27;20015;-80
2021/01/01 02:50:19;;;;;;;1.98;1.88;;;4.50;98.70;;;;;;6376022;27;20026;-78
2021/01/01 02:53:20;;;;;;;2.67;2.47;;;4.10;98.70;;;;;;6375419;27;20026;-78
2021/01/01 02:56:21;;;;;;;3.15;2.20;;;4.10;98.70;;;;;;6375714;27;20083;-78
2021/01/01 02:59:21;;;;;;;2.80;2.50;;;3.60;98.80;;;;;;6375243;27;20072;-79
2021/01/01 03:02:22;;;;;;;2.47;2.28;;;3.60;99.20;;;;;;6375568;27;20047;-78
2021/01/01 03:05:22;;;;;;;2.40;2.20;;;4.20;99.20;;;;;;6375355;27;20448;-78
2021/01/01 03:08:23;;;;;;;2.47;2.28;;;4.60;99.60;;;;;;6375472;27;20111;-77
2021/01/01 03:11:24;;;;;;;2.92;2.40;;;3.70;99.90;;;;;;6375170;27;20024;-77
2021/01/01 03:14:24;;;;;;;2.60;2.40;;;3.80;99.40;;;;;;6374950;27;20400;-78
2021/01/01 03:17:25;;;;;;;2.50;2.30;;;4.10;99.40;;;;;;6375381;27;20076;-78
2021/01/01 03:20:25;;;;;;;2.38;2.17;;;3.50;99.90;;;;;;6375153;27;20054;-79
2021/01/01 03:23:26;;;;;;;2.40;2.20;;;3.60;99.90;;;;;;6374919;27;20023;-78
2021/01/01 03:26:27;;;;;;;2.60;2.40;;;3.60;99.90;;;;;;6374481;27;20019;-78
2021/01/01 03:29:27;;;;;;;2.58;2.38;;;3.60;99.90;;;;;;6374646;27;20028;-78
2021/01/01 03:32:28;;;;;;;2.58;2.38;;;3.80;99.90;;;;;;6374480;27;20102;-80
2021/01/01 03:35:29;;;;;;;2.20;2.00;;;;;;;;;;6373725;27;20034;-77
2021/01/01 03:38:30;;;;;;;2.40;2.20;;;3.50;99.90;;;;;;6374433;27;20381;-79
2021/01/01 03:41:32;;;;;;;2.30;2.10;;;3.60;99.90;;;;;;6374562;27;20438;-78
2021/01/01 03:44:32;;;;;;;2.42;2.22;;;4.30;99.90;;;;;;6374373;27;20039;-78
2021/01/01 03:47:33;;;;;;;2.30;2.13;;;3.40;99.90;;;;;;6373994;27;20115;-78
2021/01/01 03:50:33;;;;;;;2.30;2.10;;;3.70;99.90;;;;;;6374139;27;20026;-80
2021/01/01 03:53:34;;;;;;;2.40;2.20;;;4.30;99.90;;;;;;6373831;27;20068;-78
2021/01/01 03:56:35;;;;;;;2.40;2.20;;;4.20;99.90;;;;;;6374208;27;20035;-78
2021/01/01 03:59:35;;;;;;;2.17;2.08;;;4.30;99.70;;;;;;6373809;27;20030;-77
2021/01/01 04:02:36;;;;;;;2.50;2.30;;;4.10;99.60;;;;;;6374329;27;20050;-77
2021/01/01 04:05:36;;;;;;;2.40;2.20;;;4.30;99.60;;;;;;6373882;27;20353;-78
2021/01/01 04:08:37;;;;;;;2.58;2.38;;;4.20;99.60;;;;;;6373871;27;20023;-78
2021/01/01 04:11:37;;;;;;;2.85;2.40;;;4.00;99.40;;;;;;6373588;27;20019;-78
2021/01/01 04:14:38;;;;;;;2.88;2.50;;;3.60;99.90;;;;;;6373797;27;20384;-77
2021/01/01 04:17:39;;;;;;;2.40;2.20;;;4.20;99.50;;;;;;6373696;27;20054;-78
2021/01/01 04:20:39;;;;;;;2.22;2.03;;;4.10;99.40;;;;;;6354777;27;20029;-78
2021/01/01 04:23:40;;;;;;;2.60;2.40;;;4.10;99.40;;;;;;6373371;27;20038;-78
2021/01/01 04:26:41;;;;;;;2.45;2.25;;;4.00;99.50;;;;;;6373548;27;20027;-79
2021/01/01 04:29:41;;;;;;;3.00;2.70;;;3.50;99.60;;;;;;6373376;27;20354;-78
2021/01/01 04:32:42;;;;;;;2.60;2.40;;;4.10;99.90;;;;;;6373269;27;20034;-78
2021/01/01 04:35:42;;;;;;;2.53;2.33;;;3.80;99.90;;;;;;6373098;27;20353;-78
2021/01/01 04:38:43;;;;;;;3.03;2.60;;;3.80;99.90;;;;;;6373114;27;20052;-79
2021/01/01 04:41:44;;;;;;;3.10;2.80;;;3.80;99.90;;;;;;6373339;27;20026;-79
2021/01/01 04:44:44;;;;;;;3.50;3.00;;;3.80;99.80;;;;;;6373348;27;20766;-78
2021/01/01 04:47:45;;;;;;;3.60;3.30;;;4.00;99.90;;;;;;6372969;27;20068;-79
2021/01/01 04:50:46;;;;;;;3.88;3.15;;;3.80;99.90;;;;;;6354619;27;20053;-77
2021/01/01 04:53:47;;;;;;;3.63;3.33;;;3.90;99.90;;;;;;6372740;27;20076;-79
2021/01/01 04:56:48;;;;;;;4.32;3.42;;;4.40;99.90;;;;;;6372846;27;20126;-78
2021/01/01 04:59:48;;;;;;;3.80;3.30;;;3.00;99.90;;;;;;6372535;27;20029;-77
2021/01/01 05:02:49;;;;;;;4.40;3.38;;;3.80;99.90;;;;;;6372735;27;20396;-78
2021/01/01 05:05:50;;;;;;;5.13;3.78;;;2.80;99.90;;;;;;6372902;28;20149;-78
2021/01/01 05:08:51;;;;;;;3.60;3.13;;;2.90;99.90;;;;;;6354240;28;20030;-78
2021/01/01 05:12:05;;;;;;;3.58;2.92;;;3.70;99.80;;;;;;6372651;27;20510;-79
2021/01/01 05:15:06;;;;;;;3.67;3.05;;;3.10;98.40;;;;;;6354753;27;20038;-78
2021/01/01 05:18:25;;;;;;;3.38;3.00;;;3.00;98.80;;;;;;6372432;28;20031;-77
2021/01/01 05:21:26;;;;;;;4.00;3.10;;;3.60;99.80;;;;;;6372876;28;20027;-79
2021/01/01 05:24:27;;;;;;;3.38;2.60;;;3.40;99.70;;;;;;6372392;28;20031;-77
2021/01/01 05:27:32;;;;;;;2.45;2.25;;;2.80;99.30;;;;;;6337224;28;20074;-77
2021/01/01 05:30:33;;;;;;;2.30;2.10;;;3.50;99.40;;;;;;6372417;28;20524;-78
2021/01/01 05:33:33;;;;;;;2.05;1.85;;;2.60;98.70;;;;;;6372530;27;20020;-78
2021/01/01 05:36:36;;;;;;;2.38;1.90;;;3.20;99.00;;;;;;6354104;28;20114;-77
2021/01/01 05:39:36;;;;;;;1.83;1.73;;;3.50;98.80;;;;;;6372864;28;20053;-78
2021/01/01 05:42:37;;;;;;;1.98;1.80;;;3.10;98.70;;;;;;6372399;28;20023;-79
2021/01/01 05:45:38;;;;;;;1.80;1.70;;;3.80;98.90;;;;;;6372496;28;20413;-79
2021/01/01 05:48:38;;;;;;;1.70;1.60;;;3.50;98.90;;;;;;6354518;28;20038;-79
2021/01/01 05:51:39;;;;;;;1.48;1.38;;;2.60;99.90;;;;;;6372460;28;20023;-78
2021/01/01 05:54:41;;;;;;;1.13;1.13;;;2.40;99.90;;;;;;6372293;28;20427;-79
2021/01/01 05:57:41;;;;;;;1.50;1.40;;;3.40;98.50;;;;;;6372859;27;20023;-77
2021/01/01 06:00:42;;;;;;;1.45;1.35;;;2.30;99.90;;;;;;6377189;27;20043;-77
2021/01/01 06:03:43;;;;;;;1.75;1.65;;;3.50;98.80;;;;;;6342089;27;20432;-78
2021/01/01 06:06:43;;;;;;;1.38;1.38;;;2.90;99.90;;;;;;6377271;27;20027;-78
2021/01/01 06:09:44;;;;;;;1.15;1.15;;;3.30;98.90;;;;;;6358491;27;20023;-79
2021/01/01 06:12:44;;;;;;;1.75;1.60;;;3.50;98.90;;;;;;6358427;27;20102;-78
2021/01/01 06:15:53;;;;;;;1.60;1.50;;;2.90;98.80;;;;;;6341743;27;20526;-79
2021/01/01 06:18:55;;;;;;;1.15;1.13;;;3.30;98.90;;;;;;6377008;27;20019;-77
2021/01/01 06:21:57;;;;;;;1.30;1.20;;;2.70;99.00;;;;;;6341610;27;20015;-78
2021/01/01 06:25:02;;;;;;;1.35;1.25;;;2.90;99.40;;;;;;6341311;27;20035;-78
2021/01/01 06:28:03;;;;;;;1.95;1.60;;;2.30;99.30;;;;;;6376575;27;20019;-78
2021/01/01 06:31:05;;;;;;;1.48;1.38;;;2.20;99.10;;;;;;6376335;27;20077;-78
2021/01/01 06:34:28;;;;;;;1.10;1.10;;;3.20;99.40;;;;;;6357833;27;20407;-78
2021/01/01 06:37:39;;;;;;;1.35;1.35;;;2.90;99.00;;;;;;6376400;27;20372;-78
2021/01/01 06:40:39;;;;;;;1.65;1.55;;;2.90;99.10;;;;;;6376493;27;20027;-77
2021/01/01 06:43:51;;;;;;;1.67;1.58;;;2.10;99.00;;;;;;6376342;27;20496;-77
2021/01/01 06:46:52;;;;;;;2.22;1.63;;;2.90;99.00;;;;;;6376166;27;20015;-78
2021/01/01 06:49:52;;;;;;;1.80;1.70;;;2.20;98.90;;;;;;6376190;27;20030;-78
2021/01/01 06:53:12;;;;;;;1.90;1.80;;;2.40;99.10;;;;;;6375690;27;20019;-78
2021/01/01 06:56:13;;;;;;;1.77;1.67;;;2.60;99.50;;;;;;6375981;27;20030;-78
2021/01/01 06:59:14;;;;;;;2.00;1.80;;;3.00;99.70;;;;;;6375544;27;20437;-79
2021/01/01 07:02:26;;;;;;;2.55;2.35;;;2.90;99.80;;;;;;6375415;27;20086;-78
2021/01/01 07:05:27;;;;;;;3.20;2.58;;;3.50;99.90;;;;;;6357444;27;20115;-78
2021/01/01 07:08:42;;;;;;;3.00;2.70;;;2.70;99.60;;;;;;6375398;27;20093;-78
2021/01/01 07:11:43;;;;;;;4.03;3.08;;;3.10;98.60;;;;;;6375735;27;20030;-78
2021/01/01 07:14:44;;;;;;;3.72;3.05;;;2.80;99.50;;;;;;6375194;27;20019;-78
2021/01/01 07:17:47;;;;;;;3.70;3.15;;;2.80;99.60;;;;;;6375109;27;20105;-78
2021/01/01 07:20:48;;;;;;;4.28;3.13;;;2.70;99.60;;;;;;6375485;27;20054;-77
2021/01/01 07:23:48;;;;;;;4.20;3.53;;;3.20;99.50;;;;;;6357057;27;20080;-80
2021/01/01 07:26:49;;;;;;;3.50;3.05;;;2.50;99.40;;;;;;6375035;27;20023;-77
2021/01/01 07:29:50;;;;;;;5.15;3.60;;;2.60;99.40;;;;;;6374868;27;20027;-77
2021/01/01 07:32:50;;;;;;;4.90;3.63;;;3.20;99.70;;;;;;6356514;27;20488;-78
2021/01/01 07:35:51;;;;;;;4.65;3.50;;;2.80;99.70;;;;;;6339552;27;20410;-77
2021/01/01 07:38:52;;;;;;;4.30;3.50;;;2.00;99.40;;;;;;6374867;27;20011;-78
2021/01/01 07:42:03;;;;;;;4.07;3.60;;;2.40;99.60;;;;;;6374898;27;20468;-77
2021/01/01 07:45:04;;;;;;;5.80;3.95;;;3.50;99.90;;;;;;6356773;27;20080;-78
2021/01/01 07:48:05;;;;;;;5.03;4.53;;;2.00;98.90;;;;;;6374317;27;20026;-78
2021/01/01 07:51:07;;;;;;;4.18;3.35;;;2.00;99.30;;;;;;6374617;27;20024;-78
2021/01/01 07:54:08;;;;;;;5.05;4.55;;;2.40;99.40;;;;;;6374801;27;20068;-78
2021/01/01 07:57:09;;;;;;;8.77;6.32;;;2.00;99.30;;;;;;6374587;27;20039;-78
2021/01/01 08:00:10;;;;;;;4.72;4.13;;;2.00;99.40;;;;;;6355754;27;20042;-77
2021/01/01 08:03:11;;;;;;;4.18;3.72;;;2.10;99.00;;;;;;6373986;27;20023;-79
2021/01/01 08:06:12;;;;;;;4.38;3.97;;;2.50;99.50;;;;;;6374434;27;20395;-78
2021/01/01 08:09:13;;;;;;;4.53;3.17;;;3.10;99.30;;;;;;6373842;27;20039;-78
2021/01/01 08:12:14;;;;;;;3.60;3.22;;;3.50;99.50;;;;;;6373911;27;20054;-77
2021/01/01 08:15:29;;;;;;;3.95;3.55;;;2.00;99.90;;;;;;6373719;27;20031;-78
2021/01/01 08:18:29;;;;;;;5.20;4.25;;;2.20;97.90;;;;;;6374153;27;20027;-79
2021/01/01 08:21:31;;;;;;;9.73;6.75;;;2.00;99.90;;;;;;6337305;27;20058;-79
2021/01/01 08:24:32;;;;;;;5.28;4.05;;;2.90;99.90;;;;;;6338688;27;20774;-78
2021/01/01 08:27:33;;;;;;;8.18;5.78;;;2.70;99.30;;;;;;6355548;27;20023;-78
2021/01/01 08:30:37;;;;;;;5.25;4.75;;;3.30;99.30;;;;;;6355303;27;20450;-79
2021/01/01 08:33:39;;;;;;;5.15;4.65;;;3.10;99.40;;;;;;6373796;27;20019;-78
2021/01/01 08:36:40;;;;;;;4.53;4.07;;;;;;;;;;6354974;27;20114;-77
2021/01/01 08:39:40;;;;;;;4.63;4.05;;;1.80;98.10;;;;;;6373682;27;20463;-79
2021/01/01 08:42:41;;;;;;;4.65;4.15;;;2.90;99.30;;;;;;6373357;27;20027;-78
2021/01/01 08:45:42;;;;;;;4.75;4.00;;;3.30;99.20;;;;;;6355155;27;20023;-78
2021/01/01 08:48:42;;;;;;;5.63;4.70;;;3.50;99.00;;;;;;6354803;27;20021;-77
2021/01/01 08:51:44;;;;;;;5.90;5.13;;;2.70;98.60;;;;;;6373190;27;20399;-77
2021/01/01 08:54:45;;;;;;;6.60;5.90;;;3.30;98.80;;;;;;6373300;27;20095;-78
2021/01/01 08:57:46;;;;;;;5.75;5.10;;;3.10;98.80;;;;;;6372993;27;20019;-79
2021/01/01 09:00:46;;;;;;;7.25;6.13;;;3.70;99.00;;;;;;6372931;27;20488;-77
2021/01/01 09:03:47;;;;;;;6.85;6.15;;;3.50;98.90;;;;;;6373218;28;20033;-78
2021/01/01 09:06:58;;;;;;;5.63;4.68;;;3.80;98.70;;;;;;6354806;28;20540;-78
2021/01/01 09:10:14;;;;;;;5.30;4.60;;;3.80;98.60;;;;;;6372816;28;20070;-78
2021/01/01 09:13:30;;;;;;;6.18;5.10;;;3.30;98.20;;;;;;6373141;28;20059;-79
2021/01/01 09:16:31;;;;;;;6.60;5.32;;;3.40;98.30;;;;;;6372888;28;20031;-77
2021/01/01 09:19:31;;;;;;;7.82;5.97;;;3.40;97.90;;;;;;6372753;28;20042;-78
2021/01/01 09:22:33;;;;;;;5.82;5.00;;;3.40;97.90;;;;;;6372690;27;20031;-77
2021/01/01 09:25:34;;;;;;;10.15;9.15;;;3.30;97.00;;;;;;6372886;27;20026;-78
2021/01/01 09:28:35;;;;;;;7.32;6.50;;;2.90;97.00;;;;;;6372977;28;20019;-77
2021/01/01 09:31:37;;;;;;;8.52;7.72;;;3.60;96.50;;;;;;6372992;27;20050;-78
2021/01/01 09:34:37;;;;;;;9.20;8.30;;;3.40;96.70;;;;;;6376254;27;20027;-78
2021/01/01 09:37:44;;;;;;;8.02;6.85;;;3.70;97.50;;;;;;6377682;27;20360;-78
2021/01/01 09:40:45;;;;;;;24.20;12.95;;;4.00;97.80;;;;;;6343598;27;20022;-78
2021/01/01 09:43:45;;;;;;;22.55;13.75;;;3.90;95.80;;;;;;6377535;27;20031;-79
2021/01/01 09:46:46;;;;;;;6.93;5.35;;;3.90;95.80;;;;;;6377803;27;20061;-79
2021/01/01 09:49:46;;;;;;;6.43;4.47;;;3.40;94.80;;;;;;6377307;27;20117;-78
2021/01/01 09:52:47;;;;;;;5.10;4.10;;;4.10;95.40;;;;;;6377315;27;20060;-78
2021/01/01 09:55:50;;;;;;;5.68;4.70;;;4.30;95.70;;;;;;6377048;27;20445;-78
2021/01/01 09:58:50;;;;;;;10.27;9.15;;;3.90;95.60;;;;;;6377356;27;20024;-78
2021/01/01 10:01:51;;;;;;;14.65;10.07;;;4.10;95.30;;;;;;6377375;27;20381;-79
2021/01/01 10:04:52;;;;;;;9.40;5.50;;;3.90;95.30;;;;;;6358844;27;20019;-78
2021/01/01 10:07:52;;;;;;;5.70;4.82;;;3.90;95.40;;;;;;6376927;27;20471;-78
2021/01/01 10:10:54;;;;;;;5.25;4.75;;;4.60;95.00;;;;;;6376716;27;20488;-80
2021/01/01 10:13:54;;;;;;;6.15;5.20;;;3.70;94.70;;;;;;6376700;27;20069;-78
2021/01/01 10:16:55;;;;;;;12.65;11.50;;;4.20;94.00;;;;;;6376886;27;20354;-78
2021/01/01 10:19:56;;;;;;;9.43;8.48;;;4.00;99.90;;;;;;6376584;27;20066;-78
2021/01/01 10:22:57;;;;;;;6.85;6.10;;;4.70;94.40;;;;;;6376677;27;20019;-78
2021/01/01 10:25:58;;;;;;;27.48;24.95;;;4.40;93.90;;;;;;6376809;27;20019;-78
2021/01/01 10:28:58;;;;;;;17.48;15.88;;;4.70;93.60;;;;;;6376651;27;20027;-77
2021/01/01 10:32:17;;;;;;;28.42;24.70;;;4.60;93.80;;;;;;6376895;27;20455;-80
2021/01/01 10:35:18;;;;;;;7.05;6.00;;;4.60;93.30;;;;;;6376469;27;20070;-80
2021/01/01 10:38:18;;;;;;;5.85;4.75;;;4.30;92.50;;;;;;6376511;27;20025;-78
2021/01/01 10:41:19;;;;;;;6.40;4.80;;;4.70;92.70;;;;;;6376423;27;20084;-78
2021/01/01 10:44:20;;;;;;;5.75;5.03;;;4.50;99.90;;;;;;6375485;27;20031;-79
2021/01/01 10:47:20;;;;;;;5.65;4.97;;;4.60;92.70;;;;;;6375895;27;20060;-78
2021/01/01 10:50:21;;;;;;;6.50;5.53;;;5.20;92.50;;;;;;6375860;27;20030;-78
2021/01/01 10:53:21;;;;;;;7.20;4.75;;;4.80;93.30;;;;;;6375969;27;20031;-78
2021/01/01 10:56:29;;;;;;;6.22;5.43;;;4.70;93.40;;;;;;6375528;27;20354;-77
2021/01/01 10:59:29;;;;;;;6.40;5.18;;;4.10;99.90;;;;;;6375669;27;20041;-78
2021/01/01 11:02:30;;;;;;;5.82;5.22;;;4.70;94.00;;;;;;6375381;27;20043;-78
2021/01/01 11:05:31;;;;;;;5.75;5.03;;;4.70;94.10;;;;;;6375930;27;20342;-78
2021/01/01 11:08:31;;;;;;;5.78;4.38;;;4.70;93.90;;;;;;6375317;27;20023;-78
2021/01/01 11:11:32;;;;;;;6.30;5.22;;;4.80;93.60;;;;;;6375757;27;20019;-79
2021/01/01 12:27:20;;;;;;;7.15;5.20;;;5.00;92.30;;;;;;6355277;27;20060;-78
2021/01/01 12:30:21;;;;;;;5.97;4.82;;;4.50;92.00;;;;;;6338349;27;20377;-78
2021/01/01 12:33:23;;;;;;;7.72;5.63;;;4.50;91.90;;;;;;6338330;27;20118;-78
2021/01/01 12:36:23;;;;;;;5.77;4.90;;;4.80;92.50;;;;;;6337987;27;20115;-78
2021/01/01 12:39:24;;;;;;;6.13;4.95;;;4.90;93.10;;;;;;6373118;27;20406;-78
2021/01/01 12:42:25;;;;;;;6.15;4.63;;;4.80;93.10;;;;;;6354892;27;20023;-78
2021/01/01 12:45:25;;;;;;;6.38;5.57;;;4.50;92.70;;;;;;6355222;27;20019;-79
2021/01/01 12:48:26;;;;;;;6.53;4.85;;;4.40;92.70;;;;;;6373075;27;20023;-78
2021/01/01 12:51:27;;;;;;;6.80;5.75;;;4.60;93.10;;;;;;6337870;27;20057;-78
2021/01/01 12:54:27;;;;;;;5.15;4.65;;;4.90;93.30;;;;;;6354928;27;20072;-78
2021/01/01 12:57:28;;;;;;;6.78;5.35;;;4.80;93.10;;;;;;6338134;27;20428;-78
2021/01/01 13:00:28;;;;;;;6.00;4.93;;;4.90;92.80;;;;;;6373260;27;20039;-80
2021/01/01 13:03:29;;;;;;;5.82;4.63;;;4.90;93.00;;;;;;6372960;27;20027;-78
2021/01/01 13:06:30;;;;;;;6.63;4.63;;;4.70;93.40;;;;;;6373366;27;20517;-79
2021/01/01 13:09:30;;;;;;;5.35;4.60;;;5.10;93.50;;;;;;6381259;27;20076;-78
2021/01/01 13:12:31;;;;;;;5.53;4.82;;;4.70;93.60;;;;;;6381530;27;20019;-80
2021/01/01 13:15:31;;;;;;;5.57;4.60;;;5.00;93.90;;;;;;6381250;27;20042;-79
2021/01/01 13:18:32;;;;;;;5.25;4.25;;;5.10;93.30;;;;;;6381452;27;20026;-78
2021/01/01 13:21:34;;;;;;;5.20;4.43;;;5.00;93.30;;;;;;6381183;27;20020;-79
2021/01/01 13:24:34;;;;;;;6.53;4.90;;;4.70;93.50;;;;;;6381167;27;20015;-78
2021/01/01 13:27:35;;;;;;;5.85;4.78;;;4.50;93.40;;;;;;6381305;27;20640;-78
2021/01/01 13:30:36;;;;;;;5.72;4.88;;;4.70;93.40;;;;;;6363032;27;20076;-79
2021/01/01 13:33:36;;;;;;;6.40;4.70;;;4.70;93.20;;;;;;6381797;27;20034;-78
2021/01/01 13:36:38;;;;;;;6.38;5.30;;;4.10;93.30;;;;;;6381372;27;20031;-78
2021/01/01 13:39:40;;;;;;;6.93;5.50;;;4.80;93.90;;;;;;6381282;27;20034;-79
2021/01/01 13:42:40;;;;;;;5.60;4.90;;;4.50;93.50;;;;;;6381293;27;20027;-78
2021/01/01 13:45:41;;;;;;;5.68;4.75;;;4.20;93.70;;;;;;6380924;27;20031;-78
2021/01/01 13:48:42;;;;;;;5.80;5.20;;;4.70;94.50;;;;;;6381299;27;20030;-78
2021/01/01 13:51:42;;;;;;;6.35;5.60;;;4.70;94.10;;;;;;6380915;27;20019;-78
2021/01/01 13:54:43;;;;;;;7.13;5.85;;;4.40;94.00;;;;;;6380983;27;20027;-77
2021/01/01 13:57:43;;;;;;;7.30;5.63;;;4.60;94.10;;;;;;6381088;27;20023;-79
2021/01/01 14:00:45;;;;;;;7.13;5.97;;;4.60;93.90;;;;;;6381283;27;20046;-78
2021/01/01 14:03:46;;;;;;;7.72;6.30;;;4.10;93.60;;;;;;6380814;27;20029;-78
2021/01/01 14:06:46;;;;;;;8.52;7.13;;;4.50;94.30;;;;;;6380862;27;20377;-78
2021/01/01 14:09:47;;;;;;;9.73;7.35;;;4.50;93.70;;;;;;6380627;27;20447;-78
2021/01/01 14:12:47;;;;;;;10.52;8.80;;;4.60;93.60;;;;;;6380952;27;20023;-79
2021/01/01 14:15:48;;;;;;;8.55;7.55;;;4.60;94.60;;;;;;6380672;27;20064;-78
2021/01/01 14:19:46;;;;;;;9.75;8.30;;;4.70;93.80;;;;;;6379268;27;20322;-79
2021/01/01 14:22:47;;;;;;;8.10;7.28;;;4.30;91.90;;;;;;6300487;27;20031;-80
2021/01/01 14:25:48;;;;;;;8.73;7.82;;;4.50;93.20;;;;;;6376434;27;20035;-78
2021/01/01 14:28:48;;;;;;;8.55;6.93;;;4.30;93.40;;;;;;6376506;27;20031;-79
2021/01/01 14:31:49;;;;;;;8.32;6.95;;;4.60;94.00;;;;;;6376909;27;20075;-78
2021/01/01 14:34:52;;;;;;;8.82;6.45;;;4.00;99.90;;;;;;6358134;27;20084;-78
2021/01/01 14:37:52;;;;;;;8.10;6.68;;;3.90;99.90;;;;;;6376985;27;20030;-78
2021/01/01 14:40:53;;;;;;;5.93;5.03;;;3.70;99.90;;;;;;6376153;27;20050;-78
2021/01/01 14:43:53;;;;;;;6.72;5.55;;;3.90;93.90;;;;;;6376196;27;20039;-78
2021/01/01 14:46:57;;;;;;;6.95;5.50;;;3.60;99.90;;;;;;6376022;27;20023;-78
2021/01/01 14:49:57;;;;;;;9.05;6.47;;;3.70;99.90;;;;;;6375864;27;20015;-78
2021/01/01 14:52:58;;;;;;;7.15;6.18;;;;;;;;;;6357908;27;20023;-78
2021/01/01 14:55:59;;;;;;;7.60;5.72;;;;;;;;;;6375560;27;20031;-78
2021/01/01 14:59:00;;;;;;;7.55;5.80;;;;;;;;;;6375550;27;20015;-78
2021/01/01 15:02:01;;;;;;;8.60;6.38;;;3.50;99.10;;;;;;6375886;27;20047;-79
2021/01/01 15:05:02;;;;;;;9.43;6.10;;;3.80;99.90;;;;;;6375795;27;20023;-78
2021/01/01 15:08:03;;;;;;;8.25;6.80;;;3.50;99.90;;;;;;6375615;27;20030;-78
2021/01/01 15:11:03;;;;;;;8.63;6.70;;;3.60;99.90;;;;;;6375691;27;20020;-78
2021/01/01 15:14:04;;;;;;;9.32;7.07;;;4.10;94.80;;;;;;6375741;27;20019;-78
2021/01/01 15:17:04;;;;;;;7.97;6.50;;;3.90;94.90;;;;;;6375062;27;20043;-80
2021/01/01 15:20:06;;;;;;;7.35;6.30;;;4.70;94.90;;;;;;6375304;27;20015;-79
2021/01/01 15:23:06;;;;;;;7.45;6.20;;;3.40;94.30;;;;;;6374969;27;20034;-78
2021/01/01 15:26:07;;;;;;;9.60;6.90;;;4.00;95.60;;;;;;6375208;27;20019;-79
2021/01/01 15:29:07;;;;;;;8.80;6.85;;;4.00;95.60;;;;;;6374917;27;20049;-78
2021/01/01 15:32:08;;;;;;;8.98;6.50;;;3.90;95.30;;;;;;6374081;27;20015;-78
2021/01/01 15:35:09;;;;;;;11.57;8.35;;;3.30;99.90;;;;;;6339346;27;20541;-78
2021/01/01 15:38:10;;;;;;;43.90;20.80;;;3.30;94.70;;;;;;6374611;27;20031;-78
2021/01/01 15:41:11;;;;;;;22.52;13.40;;;3.30;95.30;;;;;;6374968;27;20468;-78
2021/01/01 15:44:11;;;;;;;11.45;7.80;;;4.00;95.50;;;;;;6374587;27;20098;-79
2021/01/01 15:47:14;;;;;;;9.25;7.80;;;3.90;95.80;;;;;;6375211;27;20022;-77
2021/01/01 15:50:15;;;;;;;10.23;7.85;;;3.90;95.70;;;;;;6374772;27;20021;-78
2021/01/01 15:53:15;;;;;;;12.73;9.02;;;3.50;95.70;;;;;;6374504;27;20027;-79
2021/01/01 15:56:16;;;;;;;27.95;16.55;;;3.80;95.60;;;;;;6374555;27;20047;-79
2021/01/01 15:59:17;;;;;;;9.07;7.10;;;3.70;95.40;;;;;;6374113;27;20029;-78
2021/01/01 16:02:18;;;;;;;11.30;7.22;;;3.70;95.80;;;;;;6373861;27;20031;-78
2021/01/01 16:05:18;;;;;;;8.68;6.55;;;3.80;96.20;;;;;;6374341;27;20038;-79
2021/01/01 16:08:19;;;;;;;9.55;7.28;;;3.10;96.20;;;;;;6373854;27;20031;-78
2021/01/01 16:11:20;;;;;;;13.38;9.30;;;3.40;96.50;;;;;;6374036;27;20065;-78
2021/01/01 16:14:20;;;;;;;12.98;8.63;;;3.50;96.70;;;;;;6374047;27;20015;-78
2021/01/01 16:17:21;;;;;;;15.55;9.70;;;3.40;96.80;;;;;;6373784;27;20039;-78
2021/01/01 16:20:21;;;;;;;16.38;9.98;;;3.80;96.90;;;;;;6374068;27;20041;-78
2021/01/01 16:23:22;;;;;;;15.95;11.10;;;3.50;97.10;;;;;;6373834;27;20027;-78
2021/01/01 16:26:23;;;;;;;11.93;7.28;;;3.40;97.00;;;;;;6374054;27;20468;-78
2021/01/01 16:29:23;;;;;;;9.80;6.93;;;3.70;97.00;;;;;;6373939;27;20384;-79
2021/01/01 16:32:24;;;;;;;8.73;6.43;;;3.80;96.90;;;;;;6373950;27;20050;-78
2021/01/01 16:35:25;;;;;;;8.95;7.03;;;3.00;99.90;;;;;;6373574;27;20027;-77
2021/01/01 16:38:25;;;;;;;9.30;7.07;;;3.90;97.30;;;;;;6373674;27;20428;-79
2021/01/01 16:41:40;;;;;;;9.75;7.80;;;4.10;97.30;;;;;;6354689;27;20021;-77
2021/01/01 16:44:40;;;;;;;11.07;8.13;;;2.90;95.80;;;;;;6373501;27;20116;-77
2021/01/01 16:47:42;;;;;;;12.07;8.88;;;2.70;99.90;;;;;;6373165;27;20019;-79
2021/01/01 16:50:42;;;;;;;10.52;7.78;;;3.70;97.20;;;;;;6373022;27;20023;-78
2021/01/01 16:53:43;;;;;;;9.95;6.82;;;3.40;97.10;;;;;;6373466;27;20030;-79
2021/01/01 16:56:48;;;;;;;9.07;6.97;;;3.80;97.10;;;;;;6372947;27;20035;-77
2021/01/01 16:59:48;;;;;;;16.85;12.68;;;3.50;97.10;;;;;;6372859;27;20035;-78
2021/01/01 17:02:49;;;;;;;12.10;8.30;;;4.40;97.60;;;;;;6373103;27;20365;-77
2021/01/01 17:05:49;;;;;;;9.30;7.50;;;3.30;97.00;;;;;;6373398;27;20088;-78
2021/01/01 17:08:50;;;;;;;10.48;8.30;;;3.70;97.40;;;;;;6372962;28;20034;-79
2021/01/01 17:11:51;;;;;;;10.07;7.85;;;3.50;97.10;;;;;;6373208;28;20064;-78